createdAt,value
2018-06-18T05:15:14.640Z,29.8
2018-06-18T05:16:04.717Z,29.8
2018-06-18T05:16:54.516Z,29.8
2018-06-18T05:17:44.851Z,29.9
2018-06-18T05:18:34.618Z,29.9
2018-06-18T05:19:24.986Z,29.9
2018-06-18T05:20:14.759Z,29.9
2018-06-18T05:21:05.137Z,30
2018-06-18T05:21:55.170Z,30
2018-06-18T05:22:45.007Z,30.1
2018-06-18T05:23:34.734Z,30.2
2018-06-18T05:24:25.093Z,30.2
2018-06-18T05:25:15.412Z,30.3
2018-06-18T05:26:05.478Z,30.4
2018-06-18T05:26:55.310Z,30.5
2018-06-18T05:27:45.064Z,30.6
2018-06-18T05:28:35.793Z,30.7
2018-06-18T05:29:25.463Z,30.8
2018-06-18T05:30:15.242Z,30.9
2018-06-18T05:31:05.590Z,30.9
2018-06-18T05:31:55.938Z,31
2018-06-18T05:32:46.003Z,31.1
2018-06-18T05:33:36.047Z,31.3
2018-06-18T05:34:25.837Z,31.4
2018-06-18T05:35:15.933Z,31.5
2018-06-18T05:36:05.758Z,31.7
2018-06-18T05:36:55.467Z,31.9
2018-06-18T05:37:46.109Z,32
2018-06-18T05:38:36.412Z,32.1
2018-06-18T05:39:26.541Z,32.3
2018-06-18T05:40:16.568Z,32.4
2018-06-18T05:41:06.328Z,32.5
2018-06-18T05:41:56.672Z,32.6
2018-06-18T05:42:46.754Z,32.8
2018-06-18T05:43:37.150Z,32.9
2018-06-18T05:44:26.318Z,33.1
2018-06-18T05:45:16.647Z,33.3
2018-06-18T05:46:06.976Z,33.4
2018-06-18T05:46:56.792Z,33.6
2018-06-18T05:47:46.561Z,33.8
2018-06-18T05:48:36.894Z,34
2018-06-18T05:49:26.976Z,34.1
2018-06-18T05:50:16.767Z,34.3
2018-06-18T05:51:07.395Z,34.3
2018-06-18T05:51:56.897Z,34.4
2018-06-18T05:52:47.495Z,34.5
2018-06-18T05:53:37.291Z,34.6
2018-06-18T05:54:27.637Z,34.6
2018-06-18T05:55:17.689Z,34.7
2018-06-18T05:56:07.743Z,34.8
2018-06-18T05:56:57.251Z,34.8
2018-06-18T05:57:47.883Z,34.8
2018-06-18T05:58:38.034Z,34.9
2018-06-18T05:59:27.996Z,35.1
2018-06-18T06:00:17.826Z,35.2
2018-06-18T06:01:07.861Z,35.3
2018-06-18T06:01:57.956Z,35.5
2018-06-18T06:02:47.973Z,35.6
2018-06-18T06:03:38.048Z,35.8
2018-06-18T06:04:28.426Z,35.9
2018-06-18T06:05:18.470Z,36
2018-06-18T06:06:08.343Z,36.1
2018-06-18T06:06:58.568Z,36.3
2018-06-18T06:07:48.344Z,36.5
2018-06-18T06:08:38.699Z,36.6
2018-06-18T06:09:28.592Z,36.8
2018-06-18T06:10:18.548Z,37
2018-06-18T06:11:08.622Z,37.1
2018-06-18T06:11:58.971Z,37.2
2018-06-18T06:12:49.281Z,37.3
2018-06-18T06:13:39.093Z,37.4
2018-06-18T06:14:29.145Z,37.5
2018-06-18T06:15:19.200Z,37.7
2018-06-18T06:16:09.289Z,37.8
2018-06-18T06:16:59.755Z,37.9
2018-06-18T06:17:49.391Z,38.1
2018-06-18T06:18:38.898Z,38.3
2018-06-18T06:19:29.233Z,38.6
2018-06-18T06:20:19.595Z,38.8
2018-06-18T06:21:09.640Z,39
2018-06-18T06:21:59.753Z,39.1
2018-06-18T06:22:49.758Z,39.3
2018-06-18T06:23:39.556Z,39.5
2018-06-18T06:24:29.900Z,39.6
2018-06-18T06:25:19.972Z,39.8
2018-06-18T06:26:10.018Z,39.8
2018-06-18T06:27:00.088Z,40
2018-06-18T06:27:50.150Z,40.1
2018-06-18T06:28:40.223Z,40.2
2018-06-18T06:29:30.523Z,40.3
2018-06-18T06:30:20.334Z,40.3
2018-06-18T06:31:10.456Z,40.4
2018-06-18T06:32:00.486Z,40.4
2018-06-18T06:32:50.308Z,40.5
2018-06-18T06:33:40.597Z,40.6
2018-06-18T06:34:30.651Z,40.6
2018-06-18T06:35:20.429Z,40.5
2018-06-18T06:36:10.809Z,40.5
2018-06-18T06:37:00.307Z,40.6
2018-06-18T06:37:50.973Z,40.6
2018-06-18T06:38:40.978Z,40.6
2018-06-18T06:39:31.048Z,40.7
2018-06-18T06:40:21.096Z,40.7
2018-06-18T06:41:11.155Z,40.6
2018-06-18T06:42:01.237Z,40.6
2018-06-18T06:42:51.318Z,40.6
2018-06-18T06:43:41.090Z,40.6
2018-06-18T06:44:31.425Z,40.6
2018-06-18T06:45:21.213Z,40.6
2018-06-18T06:46:11.251Z,40.6
2018-06-18T06:47:01.328Z,40.7
2018-06-18T06:47:51.679Z,40.7
2018-06-18T06:48:41.737Z,40.8
2018-06-18T06:49:31.805Z,40.9
2018-06-18T06:50:21.865Z,41.1
2018-06-18T06:51:11.922Z,41.4
2018-06-18T06:52:01.433Z,41.8
2018-06-18T06:52:52.041Z,42.4
2018-06-18T06:53:41.553Z,43.4
2018-06-18T06:54:31.926Z,44.5
2018-06-18T06:55:22.268Z,45.6
2018-06-18T06:56:12.052Z,46.9
2018-06-18T06:57:02.371Z,48.1
2018-06-18T06:57:52.161Z,49.4
2018-06-18T06:58:42.307Z,50.4
2018-06-18T06:59:32.561Z,51.4
2018-06-18T07:00:22.350Z,52.4
2018-06-18T07:01:12.822Z,53.4
2018-06-18T07:02:02.478Z,54.3
2018-06-18T07:02:52.267Z,55.2
2018-06-18T07:03:42.879Z,56.2
2018-06-18T07:04:32.645Z,57.4
2018-06-18T07:05:23.024Z,59.7
2018-06-18T07:06:12.506Z,61.6
2018-06-18T07:07:03.151Z,59.4
2018-06-18T07:07:52.722Z,55.3
2018-06-18T07:08:43.266Z,48.1
2018-06-18T07:09:33.048Z,43.6
2018-06-18T07:10:23.404Z,41.9
2018-06-18T07:11:12.911Z,41.8
2018-06-18T07:12:03.536Z,42.7
2018-06-18T07:12:53.605Z,43.9
2018-06-18T07:13:43.206Z,45.4
2018-06-18T07:14:33.133Z,47.1
2018-06-18T07:15:23.762Z,48.3
2018-06-18T07:16:13.576Z,48.9
2018-06-18T07:17:03.903Z,49.6
2018-06-18T07:17:53.965Z,50.4
2018-06-18T07:18:44.020Z,51.9
2018-06-18T07:19:34.090Z,53.6
2018-06-18T07:20:23.892Z,55.3
2018-06-18T07:21:13.977Z,57
2018-06-18T07:22:04.280Z,59.7
2018-06-18T07:22:54.333Z,59.3
2018-06-18T07:23:44.385Z,57.6
2018-06-18T07:24:34.550Z,55.4
2018-06-18T07:25:24.525Z,51.6
2018-06-18T07:26:14.621Z,47.7
2018-06-18T07:27:04.492Z,45.6
2018-06-18T07:27:54.437Z,44.9
2018-06-18T07:28:44.222Z,45.7
2018-06-18T07:29:34.853Z,46.9
2018-06-18T07:30:24.863Z,47.9
2018-06-18T07:31:14.964Z,48.3
2018-06-18T07:32:05.127Z,48.5
2018-06-18T07:32:54.822Z,48.8
2018-06-18T07:33:45.209Z,49.2
2018-06-18T07:34:34.942Z,50.3
2018-06-18T07:35:25.340Z,51.8
2018-06-18T07:36:15.109Z,53.5
2018-06-18T07:37:04.589Z,54.7
2018-06-18T07:37:55.501Z,55.8
2018-06-18T07:38:45.585Z,58.2
2018-06-18T07:39:35.601Z,60
2018-06-18T07:40:24.916Z,59.5
2018-06-18T07:41:15.743Z,59.1
2018-06-18T07:42:05.807Z,56.9
2018-06-18T07:42:55.860Z,53.8
2018-06-18T07:43:45.920Z,51.8
2018-06-18T07:44:35.448Z,52.3
2018-06-18T07:45:25.793Z,54.1
2018-06-18T07:46:16.126Z,55.5
2018-06-18T07:47:05.650Z,56.1
2018-06-18T07:47:56.251Z,55.1
2018-06-18T07:48:45.469Z,53.5
2018-06-18T07:49:36.396Z,52.8
2018-06-18T07:50:26.190Z,52.8
2018-06-18T07:51:16.211Z,53.6
2018-06-18T07:52:06.599Z,54.8
2018-06-18T07:52:56.639Z,55.8
2018-06-18T07:53:46.718Z,56.1
2018-06-18T07:54:36.754Z,56.2
2018-06-18T07:55:26.542Z,56.2
2018-06-18T07:56:16.594Z,56.1
2018-06-18T07:57:06.422Z,56.3
2018-06-18T07:57:56.479Z,56.8
2018-06-18T07:58:46.803Z,57.3
2018-06-18T08:00:26.919Z,57.9
2018-06-18T08:01:17.263Z,58.1
2018-06-18T08:02:07.350Z,58.1
2018-06-18T08:02:57.385Z,58.2
2018-06-18T08:03:47.180Z,58.4
2018-06-18T08:05:27.579Z,58.7
2018-06-18T08:06:17.633Z,58.8
2018-06-18T08:07:07.704Z,59
2018-06-18T08:07:57.760Z,59.3
2018-06-18T08:08:47.822Z,59.4
2018-06-18T08:09:37.908Z,59.7
2018-06-18T08:10:27.715Z,60.1
2018-06-18T08:11:18.071Z,60.4
2018-06-18T08:12:08.097Z,60.9
2018-06-18T08:12:58.156Z,61.1
2018-06-18T08:13:48.230Z,61.3
2018-06-18T08:14:38.284Z,61.6
2018-06-18T08:15:28.075Z,61.8
2018-06-18T08:16:18.160Z,62
2018-06-18T08:17:08.473Z,62.2
2018-06-18T08:17:58.549Z,62.4
2018-06-18T08:18:48.615Z,62.6
2018-06-18T08:19:38.673Z,62.8
2018-06-18T08:20:27.976Z,62.9
2018-06-18T08:21:18.795Z,63
2018-06-18T08:22:08.860Z,62.9
2018-06-18T08:22:58.927Z,63.1
2018-06-18T08:23:49.429Z,63.3
2018-06-18T08:24:38.865Z,63.4
2018-06-18T08:25:28.845Z,63.5
2018-06-18T08:26:19.209Z,63.6
2018-06-18T08:27:08.980Z,63.7
2018-06-18T08:27:59.319Z,63.8
2018-06-18T08:28:49.374Z,63.7
2018-06-18T08:29:39.459Z,63.9
2018-06-18T08:30:29.525Z,64.1
2018-06-18T08:31:19.551Z,64.3
2018-06-18T08:32:09.079Z,64.4
2018-06-18T08:32:59.150Z,64.4
2018-06-18T08:33:49.746Z,64.6
2018-06-18T08:34:39.631Z,64.8
2018-06-18T08:35:29.895Z,64.8
2018-06-18T08:36:20.302Z,63.9
2018-06-18T08:37:09.459Z,62.2
2018-06-18T08:38:00.092Z,60.6
2018-06-18T08:38:50.178Z,59.8
2018-06-18T08:39:39.914Z,60.6
2018-06-18T08:40:29.495Z,62.3
2018-06-18T08:41:20.329Z,63.7
2018-06-18T08:42:10.102Z,64.6
2018-06-18T08:43:00.197Z,64.8
2018-06-18T08:43:50.537Z,64.7
2018-06-18T08:44:40.602Z,64.6
2018-06-18T08:45:30.640Z,64.6
2018-06-18T08:46:20.453Z,64.9
2018-06-18T08:47:10.762Z,65.4
2018-06-18T08:48:00.571Z,66
2018-06-18T08:48:50.911Z,66.4
2018-06-18T08:49:41.000Z,66.6
2018-06-18T08:50:31.063Z,66.4
2018-06-18T08:51:20.852Z,66.1
2018-06-18T08:52:11.006Z,65.2
2018-06-18T08:53:00.666Z,63.5
2018-06-18T08:53:51.320Z,62.4
2018-06-18T08:54:40.803Z,62.6
2018-06-18T08:55:31.256Z,63.5
2018-06-18T08:56:21.509Z,64.7
2018-06-18T08:57:11.540Z,65.5
2018-06-18T08:58:01.156Z,66.1
2018-06-18T08:58:51.657Z,66.1
2018-06-18T08:59:41.174Z,66
2018-06-18T09:00:31.808Z,65.8
2018-06-18T09:01:21.872Z,65.8
2018-06-18T09:02:11.924Z,66.1
2018-06-18T09:03:02.002Z,66.5
2018-06-18T09:03:52.067Z,67.1
2018-06-18T09:04:41.919Z,67.4
2018-06-18T09:05:32.203Z,67.4
2018-06-18T09:06:21.980Z,66.4
2018-06-18T09:07:12.328Z,64.6
2018-06-18T09:08:01.907Z,62.9
2018-06-18T09:08:52.238Z,62.8
2018-06-18T09:09:42.500Z,63.9
2018-06-18T09:10:31.874Z,65.3
2018-06-18T09:11:22.700Z,66.5
2018-06-18T09:12:12.422Z,67.2
2018-06-18T09:13:02.197Z,67.4
2018-06-18T09:13:52.361Z,67.1
2018-06-18T09:14:42.886Z,66.3
2018-06-18T09:15:32.117Z,64.9
2018-06-18T09:16:22.180Z,63.9
2018-06-18T09:17:13.070Z,63.6
2018-06-18T09:18:02.607Z,64.4
2018-06-18T09:18:52.678Z,65.9
2018-06-18T09:19:43.093Z,67.3
2018-06-18T09:20:33.079Z,68.2
2018-06-18T09:21:23.412Z,68.4
2018-06-18T09:22:13.189Z,68.1
2018-06-18T09:23:03.527Z,68
2018-06-18T09:23:53.330Z,68.4
2018-06-18T09:24:43.388Z,69
2018-06-18T09:25:33.736Z,69.7
2018-06-18T09:26:23.520Z,70.3
2018-06-18T09:27:13.860Z,70.8
2018-06-18T09:28:03.371Z,70.5
2018-06-18T09:28:53.983Z,69.2
2018-06-18T09:29:43.775Z,67.3
2018-06-18T09:30:34.100Z,65.7
2018-06-18T09:31:23.622Z,64.4
2018-06-18T09:32:15.085Z,63.8
2018-06-18T09:33:04.310Z,63.8
2018-06-18T09:33:54.074Z,63.8
2018-06-18T09:34:44.434Z,63.6
2018-06-18T09:35:34.233Z,63.1
2018-06-18T09:36:24.336Z,62.5
2018-06-18T09:37:14.698Z,61.6
2018-06-18T09:38:04.731Z,60.6
2018-06-18T09:38:54.765Z,59.5
2018-06-18T09:39:44.542Z,58.8
2018-06-18T09:40:34.335Z,58.1
2018-06-18T09:41:24.947Z,57.5
2018-06-18T09:42:14.735Z,57
2018-06-18T09:43:04.799Z,56.5
2018-06-18T09:43:55.151Z,56
2018-06-18T09:44:44.998Z,55.5
2018-06-18T09:45:35.292Z,54.8
2018-06-18T09:46:24.849Z,54.1
2018-06-18T09:47:15.402Z,53.6
2018-06-18T09:48:05.660Z,53
2018-06-18T09:48:55.514Z,52.6
2018-06-18T09:49:45.117Z,52.1
2018-06-18T09:50:35.699Z,51.6
2018-06-18T09:51:25.711Z,51.3
2018-06-18T09:52:15.791Z,51
2018-06-18T09:53:05.571Z,50.8
2018-06-18T09:53:55.647Z,50.4
2018-06-18T09:54:45.677Z,50.1
2018-06-18T09:55:36.097Z,49.9
2018-06-18T09:56:26.115Z,49.8
2018-06-18T09:57:15.878Z,49.8
2018-06-18T09:58:05.675Z,49.9
2018-06-18T09:58:56.023Z,50
2018-06-18T09:59:46.344Z,50.2
2018-06-18T10:00:36.431Z,50.4
2018-06-18T10:01:26.179Z,50.6
2018-06-18T10:02:16.710Z,50.7
2018-06-18T10:03:06.606Z,50.7
2018-06-18T10:03:56.687Z,50.6
2018-06-18T10:04:46.480Z,50.3
2018-06-18T10:05:36.512Z,49.8
2018-06-18T10:06:26.846Z,49.2
2018-06-18T10:07:16.394Z,48.8
2018-06-18T10:08:06.479Z,48.4
2018-06-18T10:08:57.072Z,48
2018-06-18T10:09:47.110Z,47.7
2018-06-18T10:10:36.775Z,47.5
2018-06-18T10:11:27.250Z,47.3
2018-06-18T10:12:17.310Z,47
2018-06-18T10:13:07.424Z,46.8
2018-06-18T10:13:57.511Z,46.4
2018-06-18T10:14:47.527Z,46.1
2018-06-18T10:15:37.560Z,45.8
2018-06-18T10:16:27.668Z,45.4
2018-06-18T10:17:17.690Z,45.1
2018-06-18T10:18:07.483Z,44.8
2018-06-18T10:18:57.822Z,44.5
2018-06-18T10:19:47.638Z,44.2
2018-06-18T10:20:37.965Z,43.9
2018-06-18T10:21:27.731Z,43.7
2018-06-18T10:22:18.099Z,43.4
2018-06-18T10:23:08.155Z,43.1
2018-06-18T10:23:58.264Z,42.9
2018-06-18T10:24:48.293Z,42.8
2018-06-18T10:25:38.078Z,42.5
2018-06-18T10:26:27.847Z,42.4
2018-06-18T10:27:18.465Z,42.2
2018-06-18T10:28:08.232Z,42
2018-06-18T10:28:58.317Z,41.9
2018-06-18T10:29:48.104Z,41.8
2018-06-18T10:30:38.436Z,41.6
2018-06-18T10:31:28.770Z,41.5
2018-06-18T10:32:18.858Z,41.4
2018-06-18T10:33:08.919Z,41.2
2018-06-18T10:33:58.754Z,41.1
2018-06-18T10:34:48.763Z,41
2018-06-18T10:35:39.135Z,40.9
2018-06-18T10:36:28.910Z,40.8
2018-06-18T10:37:18.960Z,40.8
2018-06-18T10:38:09.312Z,40.8
2018-06-18T10:38:59.371Z,40.8
2018-06-18T10:39:49.411Z,40.8
2018-06-18T10:40:39.492Z,40.9
2018-06-18T10:41:29.866Z,40.9
2018-06-18T10:42:19.628Z,41.1
2018-06-18T10:43:09.407Z,41.3
2018-06-18T10:43:59.467Z,41.6
2018-06-18T10:44:49.799Z,41.9
2018-06-18T10:45:39.908Z,42.3
2018-06-18T10:46:29.921Z,42.9
2018-06-18T10:47:19.993Z,43.6
2018-06-18T10:48:09.772Z,44.3
2018-06-18T10:49:00.071Z,45.1
2018-06-18T10:49:50.181Z,45.9
2018-06-18T10:50:39.970Z,46.8
2018-06-18T10:51:30.306Z,47.7
2018-06-18T10:52:20.386Z,48.4
2018-06-18T10:53:09.880Z,49.3
2018-06-18T10:54:00.531Z,50
2018-06-18T10:54:50.568Z,50.8
2018-06-18T10:55:40.635Z,51.8
2018-06-18T10:56:30.720Z,53
2018-06-18T10:57:20.208Z,54.4
2018-06-18T10:58:10.566Z,55.9
2018-06-18T10:59:00.611Z,57.6
2018-06-18T10:59:50.978Z,59.3
2018-06-18T11:00:41.036Z,60.9
2018-06-18T11:01:30.805Z,62.4
2018-06-18T11:02:20.859Z,63.8
2018-06-18T11:03:10.925Z,66.9
2018-06-18T11:04:00.790Z,70.3
2018-06-18T11:04:50.791Z,68
2018-06-18T11:05:41.119Z,64.6
2018-06-18T11:06:31.269Z,58.6
2018-06-18T11:07:21.537Z,54.7
2018-06-18T11:08:11.290Z,53.9
2018-06-18T11:09:01.629Z,55.6
2018-06-18T11:10:41.517Z,61.4
2018-06-18T11:11:31.848Z,64.8
2018-06-18T11:12:21.921Z,66.9
2018-06-18T11:13:11.976Z,67.5
2018-06-18T11:14:02.044Z,67.9
2018-06-18T11:14:51.800Z,66.4
2018-06-18T11:15:41.336Z,64
2018-06-18T11:16:34.489Z,62.6
2018-06-18T11:17:25.038Z,63.5
2018-06-18T11:18:11.796Z,65.4
2018-06-18T11:19:02.423Z,67
2018-06-18T11:19:51.917Z,68.3
2018-06-18T11:20:42.553Z,68.6
2018-06-18T11:21:32.335Z,68.4
2018-06-18T11:22:22.418Z,67.8
2018-06-18T11:23:12.483Z,67.6
2018-06-18T11:24:02.545Z,68.1
2018-06-18T11:24:52.585Z,68.8
2018-06-18T11:25:42.366Z,69.4
2018-06-18T11:26:33.830Z,69.9
2018-06-18T11:27:23.455Z,70.3
2018-06-18T11:28:13.458Z,70.2
2018-06-18T11:29:03.193Z,70.1
2018-06-18T11:29:52.973Z,70.1
2018-06-18T11:30:43.020Z,70.1
2018-06-18T11:31:33.366Z,70.3
2018-06-18T11:32:23.596Z,70.6
2018-06-18T11:33:13.495Z,71
2018-06-18T11:34:03.581Z,71.1
2018-06-18T11:34:53.919Z,71
2018-06-18T11:35:44.141Z,70.8
2018-06-18T11:36:33.487Z,70.8
2018-06-18T11:37:23.842Z,70.9
2018-06-18T11:38:13.609Z,70.9
2018-06-18T11:39:03.378Z,71
2018-06-18T11:39:54.016Z,71.1
2018-06-18T11:40:44.131Z,71.3
2018-06-18T11:41:34.132Z,71.4
2018-06-18T11:42:24.530Z,71.3
2018-06-18T11:43:14.323Z,71.4
2018-06-18T11:44:04.321Z,71.6
2018-06-18T11:44:54.155Z,71.8
2018-06-18T11:45:44.580Z,71.9
2018-06-18T11:46:34.577Z,71.9
2018-06-18T11:47:24.587Z,71.9
2018-06-18T11:48:15.256Z,71.9
2018-06-18T11:49:04.468Z,71.9
2018-06-18T11:49:54.310Z,71.9
2018-06-18T11:50:44.833Z,72
2018-06-18T11:51:34.638Z,72
2018-06-18T11:52:24.961Z,71.9
2018-06-18T11:53:14.767Z,71.8
2018-06-18T11:54:05.111Z,71.8
2018-06-18T11:54:55.233Z,71.8
2018-06-18T11:55:45.253Z,71.8
2018-06-18T11:56:35.020Z,71.8
2018-06-18T11:57:25.374Z,71.8
2018-06-18T11:58:15.475Z,71.8
2018-06-18T11:59:05.485Z,71.9
2018-06-18T11:59:55.003Z,71.9
2018-06-18T12:00:45.600Z,72
2018-06-18T12:01:35.779Z,71.9
2018-06-18T12:02:25.728Z,71.9
2018-06-18T12:03:15.341Z,71.7
2018-06-18T12:04:05.872Z,71.6
2018-06-18T12:04:55.650Z,71.7
2018-06-18T12:05:45.438Z,71.6
2018-06-18T12:06:35.492Z,71.6
2018-06-18T12:07:25.984Z,71.6
2018-06-18T12:08:16.174Z,71.6
2018-06-18T12:09:05.978Z,71.4
2018-06-18T12:09:56.817Z,71.4
2018-06-18T12:10:46.372Z,71.5
2018-06-18T12:11:36.177Z,71.6
2018-06-18T12:12:26.518Z,71.6
2018-06-18T12:13:16.565Z,71.6
2018-06-18T12:14:06.668Z,71.6
2018-06-18T12:14:56.696Z,71.5
2018-06-18T12:15:46.758Z,71.4
2018-06-18T12:16:35.805Z,71.4
2018-06-18T12:17:26.619Z,71.3
2018-06-18T12:18:16.704Z,71.2
2018-06-18T12:19:07.020Z,71.2
2018-06-18T12:19:56.821Z,71.2
2018-06-18T12:20:47.145Z,71.1
2018-06-18T12:21:36.678Z,71.1
2018-06-18T12:22:26.723Z,71
2018-06-18T12:23:17.347Z,70.9
2018-06-18T12:24:07.143Z,70.8
2018-06-18T12:24:57.217Z,70.8
2018-06-18T12:25:47.533Z,70.6
2018-06-18T12:26:37.352Z,70.6
2018-06-18T12:27:27.669Z,70.7
2018-06-18T12:28:17.635Z,70.5
2018-06-18T12:29:07.801Z,70.3
2018-06-18T12:29:57.570Z,70.3
2018-06-18T12:30:47.623Z,70.3
2018-06-18T12:31:37.742Z,70.3
2018-06-18T12:32:27.759Z,70.3
2018-06-18T12:33:18.090Z,70.1
2018-06-18T12:34:08.169Z,70.1
2018-06-18T12:34:58.220Z,70
2018-06-18T12:35:48.074Z,69.9
2018-06-18T12:36:38.104Z,69.9
2018-06-18T12:37:28.421Z,69.9
2018-06-18T12:38:18.479Z,69.9
2018-06-18T12:39:08.100Z,69.8
2018-06-18T12:39:58.610Z,69.8
2018-06-18T12:40:48.682Z,69.9
2018-06-18T12:41:37.907Z,69.8
2018-06-18T12:42:28.537Z,69.7
2018-06-18T12:43:18.865Z,69.6
2018-06-18T12:44:08.937Z,69.5
2018-06-18T12:44:58.714Z,69.4
2018-06-18T12:45:49.176Z,69.3
2018-06-18T12:46:39.209Z,68.9
2018-06-18T12:47:29.001Z,68
2018-06-18T12:48:19.356Z,66.8
2018-06-18T12:49:09.317Z,65.9
2018-06-18T12:49:59.375Z,65.1
2018-06-18T12:50:49.443Z,64.6
2018-06-18T12:51:39.512Z,64.1
2018-06-18T12:52:29.567Z,63.9
2018-06-18T12:53:20.150Z,63.4
2018-06-18T12:54:09.707Z,62.4
2018-06-18T12:54:59.779Z,61.6
2018-06-18T12:55:49.832Z,61
2018-06-18T12:56:39.898Z,60.8
2018-06-18T12:57:29.959Z,60.6
2018-06-18T12:58:19.486Z,60.4
2018-06-18T12:59:09.563Z,60.1
2018-06-18T12:59:59.675Z,59.6
2018-06-18T13:00:50.231Z,59.3
2018-06-18T13:01:40.005Z,59
2018-06-18T13:02:29.809Z,58.6
2018-06-18T13:03:20.675Z,58.5
2018-06-18T13:04:10.490Z,58.4
2018-06-18T13:05:00.275Z,58.1
2018-06-18T13:05:50.613Z,57.7
2018-06-18T13:06:40.683Z,57.3
2018-06-18T13:07:30.752Z,56.9
2018-06-18T13:08:20.070Z,56.5
2018-06-18T13:09:10.609Z,56.3
2018-06-18T13:10:00.975Z,56
2018-06-18T13:10:50.721Z,55.7
2018-06-18T13:11:41.075Z,55.4
2018-06-18T13:12:30.557Z,55.1
2018-06-18T13:13:21.222Z,54.8
2018-06-18T13:14:11.267Z,54.5
2018-06-18T13:15:00.754Z,54.1
2018-06-18T13:15:51.390Z,53.7
2018-06-18T13:16:41.200Z,53.4
2018-06-18T13:17:31.294Z,53.1
2018-06-18T13:18:36.233Z,52.8
2018-06-18T13:20:01.449Z,52.1
2018-06-18T13:20:51.762Z,51.8
2018-06-18T13:21:41.931Z,51.6
2018-06-18T13:22:31.898Z,51.3
2018-06-18T13:23:21.978Z,51
2018-06-18T13:24:12.055Z,50.8
2018-06-18T13:25:02.110Z,50.4
2018-06-18T13:25:52.152Z,50.1
2018-06-18T13:26:41.654Z,49.9
2018-06-18T13:27:31.936Z,49.7
2018-06-18T13:28:22.435Z,49.4
2018-06-18T13:29:12.405Z,49.1
2018-06-18T13:30:01.654Z,48.9
2018-06-18T13:30:52.548Z,48.9
2018-06-18T13:31:42.626Z,48.7
2018-06-18T13:32:32.106Z,48.6
2018-06-18T13:33:22.498Z,48.5
2018-06-18T13:34:12.248Z,48.4
2018-06-18T13:35:02.598Z,48.3
2018-06-18T13:35:52.967Z,48.1
2018-06-18T13:36:42.767Z,48.1
2018-06-18T13:37:32.790Z,47.9
2018-06-18T13:38:22.836Z,47.9
2018-06-18T13:39:13.183Z,47.8
2018-06-18T13:40:03.301Z,47.6
2018-06-18T13:40:53.314Z,47.5
2018-06-18T13:41:43.437Z,47.4
2018-06-18T13:42:33.462Z,47.2
2018-06-18T13:43:23.520Z,47.1
2018-06-18T13:44:13.492Z,46.9
2018-06-18T13:45:03.362Z,46.8
2018-06-18T13:45:53.706Z,46.7
2018-06-18T13:46:43.783Z,46.7
2018-06-18T13:47:33.829Z,46.7
2018-06-18T13:48:23.327Z,46.6
2018-06-18T13:49:13.675Z,46.5
2018-06-18T13:50:04.024Z,46.5
2018-06-18T13:50:53.820Z,46.5
2018-06-18T13:51:43.876Z,46.4
2018-06-18T13:52:34.062Z,46.3
2018-06-18T13:53:24.021Z,46.1
2018-06-18T13:54:13.525Z,46.1
2018-06-18T13:55:04.424Z,46.1
2018-06-18T13:55:54.204Z,46
2018-06-18T13:56:44.254Z,46
2018-06-18T13:57:34.616Z,45.9
2018-06-18T13:58:24.407Z,45.8
2018-06-18T13:59:14.732Z,45.8
2018-06-18T14:00:04.245Z,45.9
2018-06-18T14:00:54.853Z,45.8
2018-06-18T14:01:44.914Z,45.8
2018-06-18T14:02:34.709Z,45.8
2018-06-18T14:03:24.773Z,45.7
2018-06-18T14:04:14.857Z,45.7
2018-06-18T14:05:04.746Z,45.7
2018-06-18T14:05:54.769Z,45.6
2018-06-18T14:06:45.294Z,45.6
2018-06-18T14:07:35.379Z,45.5
2018-06-18T14:08:25.227Z,45.5
2018-06-18T14:09:15.268Z,45.6
2018-06-18T14:10:05.545Z,45.6
2018-06-18T14:10:55.359Z,45.6
2018-06-18T14:11:45.146Z,45.6
2018-06-18T14:12:35.741Z,45.6
2018-06-18T14:13:25.537Z,45.6
2018-06-18T14:14:15.969Z,45.6
2018-06-18T14:15:05.686Z,45.5
2018-06-18T14:15:55.797Z,45.4
2018-06-18T14:16:46.091Z,45.4
2018-06-18T14:17:36.140Z,45.3
2018-06-18T14:18:26.208Z,45.4
2018-06-18T14:19:16.281Z,45.3
2018-06-18T14:20:06.111Z,45.2
2018-06-18T14:20:56.151Z,45.1
2018-06-18T14:21:46.191Z,45
2018-06-18T14:22:36.516Z,44.9
2018-06-18T14:23:26.327Z,44.7
2018-06-18T14:24:16.682Z,44.5
2018-06-18T14:25:06.721Z,44.4
2018-06-18T14:25:56.215Z,44.3
2018-06-18T14:26:46.841Z,44.1
2018-06-18T14:27:36.890Z,44.1
2018-06-18T14:28:27.032Z,43.9
2018-06-18T14:29:17.054Z,43.8
2018-06-18T14:30:07.098Z,43.6
2018-06-18T14:30:56.881Z,43.4
2018-06-18T14:31:47.250Z,43.3
2018-06-18T14:32:36.591Z,43.1
2018-06-18T14:33:27.350Z,42.9
2018-06-18T14:34:17.412Z,42.8
2018-06-18T14:35:07.238Z,42.6
2018-06-18T14:35:57.001Z,42.4
2018-06-18T14:36:47.644Z,42.3
2018-06-18T14:37:37.676Z,42.1
2018-06-18T14:38:27.770Z,42
2018-06-18T14:39:17.541Z,41.9
2018-06-18T14:40:07.943Z,41.8
2018-06-18T14:40:57.934Z,41.7
2018-06-18T14:41:48.018Z,41.6
2018-06-18T14:42:38.423Z,41.5
2018-06-18T14:43:28.125Z,41.4
2018-06-18T14:44:18.199Z,41.4
2018-06-18T14:45:08.385Z,41.6
2018-06-18T14:45:59.018Z,41.6
2018-06-18T14:46:48.377Z,41.7
2018-06-18T14:47:38.643Z,41.6
2018-06-18T14:48:29.713Z,41.6
2018-06-18T14:49:18.318Z,41.6
2018-06-18T14:50:08.638Z,41.6
2018-06-18T14:50:58.726Z,41.7
2018-06-18T14:51:48.484Z,41.9
2018-06-18T14:52:39.136Z,42.1
2018-06-18T14:53:28.893Z,42.3
2018-06-18T14:54:19.241Z,42.4
2018-06-18T14:55:09.033Z,42.6
2018-06-18T14:55:58.992Z,42.8
2018-06-18T14:56:49.473Z,43.1
2018-06-18T14:57:39.201Z,43.4
2018-06-18T14:58:29.011Z,43.8
2018-06-18T14:59:19.251Z,44.1
2018-06-18T15:00:09.419Z,44.4
2018-06-18T15:00:59.202Z,44.8
2018-06-18T15:01:49.589Z,45.1
2018-06-18T15:02:39.590Z,45.6
2018-06-18T15:03:29.661Z,45.9
2018-06-18T15:04:19.809Z,46
2018-06-18T15:05:09.527Z,46.1
2018-06-18T15:05:59.577Z,46
2018-06-18T15:06:49.378Z,45.9
2018-06-18T15:07:39.719Z,45.8
2018-06-18T15:08:30.383Z,45.7
2018-06-18T15:09:20.785Z,45.6
2018-06-18T15:10:10.052Z,45.4
2018-06-18T15:10:59.960Z,45.3
2018-06-18T15:11:50.331Z,45.2
2018-06-18T15:12:40.691Z,44.9
2018-06-18T15:13:30.176Z,44.8
2018-06-18T15:14:20.224Z,44.6
2018-06-18T15:15:10.575Z,44.3
2018-06-18T15:16:01.012Z,44
2018-06-18T15:16:50.438Z,43.8
2018-06-18T15:17:40.493Z,43.6
2018-06-18T15:18:30.257Z,43.3
2018-06-18T15:19:21.178Z,43
2018-06-18T15:20:10.684Z,42.7
2018-06-18T15:21:00.918Z,42.4
2018-06-18T15:21:50.820Z,42
2018-06-18T15:22:41.159Z,41.6
2018-06-18T15:23:31.202Z,41.3
2018-06-18T15:24:21.262Z,40.8
2018-06-18T15:25:11.651Z,40.3
2018-06-18T15:26:01.316Z,39.7
2018-06-18T15:26:52.389Z,38.9
2018-06-18T15:27:41.523Z,38.2
2018-06-18T15:28:31.595Z,37.6
2018-06-18T15:29:21.647Z,37.1
2018-06-18T15:30:11.727Z,36.6
2018-06-18T15:31:01.814Z,36.1
2018-06-18T15:31:51.299Z,35.6
2018-06-18T15:32:41.932Z,35.2
2018-06-18T15:33:31.961Z,34.8
2018-06-18T15:34:22.039Z,34.3
2018-06-18T15:35:11.845Z,33.9
2018-06-18T15:36:02.194Z,33.5
2018-06-18T15:36:52.251Z,33.1
2018-06-18T15:37:41.821Z,32.7
2018-06-18T15:38:32.931Z,32.2
2018-06-18T15:39:22.146Z,31.8
2018-06-18T15:40:12.482Z,31.3
2018-06-18T15:41:02.293Z,30.8
2018-06-18T15:41:52.671Z,30.3
2018-06-18T15:42:42.699Z,29.9
2018-06-18T15:43:32.459Z,29.5
2018-06-18T15:44:23.281Z,29.2
2018-06-18T15:45:12.589Z,28.8
2018-06-18T15:46:02.369Z,28.5
2018-06-18T15:46:52.983Z,28.2
2018-06-18T15:47:43.057Z,27.9
2018-06-18T15:48:32.885Z,27.6
2018-06-18T15:49:23.166Z,27.3
2018-06-18T15:50:12.944Z,27
2018-06-18T15:51:03.297Z,26.8
2018-06-18T15:51:53.352Z,26.5
2018-06-18T15:52:43.135Z,26.2
2018-06-18T15:53:33.210Z,26
2018-06-18T15:54:23.555Z,25.8
2018-06-18T15:55:13.609Z,25.6
2018-06-18T15:56:03.421Z,25.3
2018-06-18T15:56:53.890Z,25.1
2018-06-18T15:57:43.531Z,24.9
2018-06-18T15:58:33.623Z,24.7
2018-06-18T15:59:23.659Z,24.6
2018-06-18T16:00:14.003Z,24.4
2018-06-18T16:01:03.784Z,24.2
2018-06-18T16:01:54.126Z,24.1
2018-06-18T16:02:44.181Z,23.9
2018-06-18T16:03:34.250Z,23.7
2018-06-18T16:04:24.339Z,23.5
2018-06-18T16:05:13.865Z,23.4
2018-06-18T16:06:04.160Z,23.3
2018-06-18T16:06:54.497Z,23.1
2018-06-18T16:07:44.019Z,22.9
2018-06-18T16:08:34.621Z,22.8
2018-06-18T16:09:24.407Z,22.7
2018-06-18T16:10:14.473Z,22.6
2018-06-18T16:11:04.843Z,22.4
2018-06-18T16:11:54.889Z,22.3
2018-06-18T16:12:44.932Z,22.2
2018-06-18T16:13:34.734Z,22.1
2018-06-18T16:14:24.872Z,22
2018-06-18T16:15:14.848Z,21.9
2018-06-18T16:16:04.634Z,21.8
2018-06-18T16:16:54.696Z,21.7
2018-06-18T16:17:45.539Z,21.6
2018-06-18T16:18:35.376Z,21.5
2018-06-18T16:19:25.173Z,21.4
2018-06-18T16:20:14.957Z,21.3
2018-06-18T16:21:05.586Z,21.2
2018-06-18T16:21:55.638Z,21.1
2018-06-18T16:22:45.706Z,21
2018-06-18T16:23:35.748Z,20.9
2018-06-18T16:24:25.826Z,20.8
2018-06-18T16:25:15.633Z,20.8
2018-06-18T16:26:05.936Z,20.7
2018-06-18T16:26:55.728Z,20.6
2018-06-18T16:27:45.783Z,20.5